Time;durP1;ratioP1;P1;durP2;ratioP2;P2;SDS_P1;SDS_P2;PMS_P1;PMS_P2;Temp;Humidity;BMP_temperature;BMP_pressure;BME280_temperature;BME280_humidity;BME280_pressure;Samples;Min_cycle;Max_cycle;Signal;HPM_P1;HPM_P2
2021/05/28 00:02:21;;;;;;;20.68;18.48;;;;;;;16.72;100.00;99641.16;1691772;82;21607;-52
2021/05/28 00:09:11;;;;;;;24.23;19.12;;;;;;;16.81;100.00;99641.42;1747385;79;22778;-52
2021/05/28 00:11:39;;;;;;;20.97;17.80;;;;;;;16.75;100.00;99645.49;1715449;82;21541;-51
2021/05/28 00:14:07;;;;;;;21.25;19.20;;;;;;;16.74;100.00;99645.98;1716661;82;21078;-51
2021/05/28 00:16:34;;;;;;;22.20;19.75;;;;;;;16.74;100.00;99644.63;1714308;82;21735;-52
2021/05/28 00:19:01;;;;;;;23.22;19.87;;;;;;;16.73;100.00;99652.43;1716834;83;20993;-51
2021/05/28 00:21:27;;;;;;;22.25;19.90;;;;;;;16.73;100.00;99650.20;1716652;82;21597;-50
2021/05/28 00:23:54;;;;;;;22.65;20.32;;;;;;;16.72;100.00;99646.61;1716549;82;20941;-52
2021/05/28 00:26:21;;;;;;;23.85;21.42;;;;;;;16.72;100.00;99634.36;1716617;82;21033;-56
2021/05/28 00:28:49;;;;;;;26.48;22.42;;;;;;;16.70;100.00;99636.77;1717277;82;20921;-56
2021/05/28 00:31:19;;;;;;;27.07;23.12;;;;;;;16.68;100.00;99635.55;1717000;82;20953;-55
2021/05/28 00:33:47;;;;;;;26.73;21.85;;;;;;;16.66;100.00;99627.96;1716843;83;21060;-53
2021/05/28 00:36:15;;;;;;;26.17;22.20;;;;;;;16.66;100.00;99630.69;1716846;82;20890;-53
2021/05/28 00:38:41;;;;;;;28.87;24.27;;;;;;;16.67;100.00;99629.73;1685406;83;21073;-52
2021/05/28 00:41:09;;;;;;;28.45;23.83;;;;;;;16.66;100.00;99625.24;1684823;84;21476;-52
2021/05/28 00:43:36;;;;;;;26.30;23.35;;;;;;;16.66;100.00;99622.52;1678558;84;21901;-52
2021/05/28 00:46:02;;;;;;;26.70;23.80;;;;;;;16.66;100.00;99630.69;1677553;84;21000;-52
2021/05/28 00:48:29;;;;;;;29.37;25.82;;;;;;;16.68;100.00;99619.70;1677954;84;20989;-52
2021/05/28 00:50:56;;;;;;;27.05;23.92;;;;;;;16.67;100.00;99619.30;1677379;84;21096;-52
2021/05/28 00:53:24;;;;;;;29.57;24.92;;;;;;;16.67;100.00;99616.11;1677573;85;20964;-53
2021/05/28 00:55:51;;;;;;;30.48;25.80;;;;;;;16.67;100.00;99608.41;1677879;84;21019;-52
2021/05/28 00:58:18;;;;;;;27.13;23.70;;;;;;;16.67;100.00;99605.22;1677422;84;21012;-52
2021/05/28 01:00:48;;;;;;;29.40;25.45;;;;;;;16.67;100.00;99603.86;1677237;84;21017;-51
2021/05/28 01:03:17;;;;;;;28.45;25.30;;;;;;;16.68;100.00;99604.23;1677488;85;20953;-51
2021/05/28 01:05:44;;;;;;;31.07;25.27;;;;;;;16.68;100.00;99605.59;1684813;83;20933;-51
2021/05/28 01:08:11;;;;;;;29.55;24.67;;;;;;;16.68;100.00;99601.50;1681138;85;20982;-57
2021/05/28 01:18:03;;;;;;;24.80;22.13;;;;;;;16.74;100.00;99601.05;1791051;77;23207;-55
2021/05/28 01:20:31;;;;;;;27.80;22.15;;;;;;;16.69;100.00;99605.95;1774395;78;20911;-54
2021/05/28 01:23:00;;;;;;;27.87;23.07;;;;;;;16.69;100.00;99611.41;1769546;79;21685;-56
2021/05/28 01:25:29;;;;;;;28.50;21.77;;;;;;;16.69;100.00;99615.48;1762143;79;21458;-56
2021/05/28 01:27:56;;;;;;;26.40;22.52;;;;;;;16.68;100.00;99612.39;1765326;79;20958;-54
2021/05/28 01:30:25;;;;;;;25.75;23.02;;;;;;;16.68;100.00;99612.39;1761253;78;21039;-55
2021/05/28 01:32:52;;;;;;;27.27;23.87;;;;;;;16.67;100.00;99606.58;1761983;79;20946;-55
2021/05/28 01:35:19;;;;;;;26.57;23.75;;;;;;;16.67;100.00;99605.22;1763050;79;21605;-55
2021/05/28 01:37:46;;;;;;;30.20;24.35;;;;;;;16.66;100.00;99606.18;1762197;79;20942;-56
2021/05/28 01:40:13;;;;;;;30.75;23.02;;;;;;;16.67;100.00;99605.22;1762749;79;21430;-55
2021/05/28 01:42:40;;;;;;;31.75;24.50;;;;;;;16.67;100.00;99604.32;1761289;79;20997;-56
2021/05/28 01:47:52;;;;;;;30.08;25.48;;;;;;;16.72;100.00;99611.20;1786042;79;22300;-50
2021/05/28 01:50:19;;;;;;;31.53;26.27;;;;;;;16.67;100.00;99610.66;1778768;80;21608;-52
2021/05/28 01:52:47;;;;;;;34.48;26.45;;;;;;;16.66;100.00;99609.40;1773521;80;21670;-50
2021/05/28 01:55:16;;;;;;;29.27;26.07;;;;;;;16.63;100.00;99609.16;1775967;80;20953;-50
2021/05/28 01:57:43;;;;;;;33.48;27.82;;;;;;;16.60;100.00;99608.02;1766507;80;21535;-54
2021/05/28 02:00:13;;;;;;;31.70;27.65;;;;;;;16.58;100.00;99607.28;1779126;80;21008;-54
2021/05/28 02:02:40;;;;;;;33.73;28.27;;;;;;;16.57;100.00;99609.64;1776579;80;20953;-53
2021/05/28 02:05:08;;;;;;;34.70;27.60;;;;;;;16.56;100.00;99607.88;1779710;80;21710;-54
2021/05/28 02:07:36;;;;;;;36.70;26.90;;;;;;;16.56;100.00;99610.59;1779415;80;20890;-53
2021/05/28 02:10:04;;;;;;;29.70;25.85;;;;;;;16.56;100.00;99607.88;1777200;80;21411;-53
2021/05/28 02:12:31;;;;;;;29.80;26.55;;;;;;;16.57;100.00;99609.64;1777093;80;20973;-54
2021/05/28 02:15:00;;;;;;;30.92;25.52;;;;;;;16.57;100.00;99606.05;1780775;80;20953;-53
2021/05/28 02:17:27;;;;;;;31.62;26.27;;;;;;;16.55;100.00;99599.34;1781211;80;21641;-54
2021/05/28 02:19:55;;;;;;;34.58;26.85;;;;;;;16.57;100.00;99603.33;1779953;80;20890;-54
2021/05/28 02:22:22;;;;;;;32.45;26.50;;;;;;;16.57;100.00;99608.77;1773662;80;20882;-54
2021/05/28 02:24:49;;;;;;;34.08;27.42;;;;;;;16.57;100.00;99606.92;1774928;80;20934;-54
2021/05/28 02:27:16;;;;;;;34.38;28.62;;;;;;;16.56;100.00;99609.23;1770720;80;20918;-54
2021/05/28 02:29:43;;;;;;;32.58;27.50;;;;;;;16.56;100.00;99602.43;1780260;80;21050;-54
2021/05/28 02:32:10;;;;;;;34.23;27.65;;;;;;;16.56;100.00;99605.16;1777036;80;21027;-53
2021/05/28 02:34:38;;;;;;;33.65;28.75;;;;;;;16.58;100.00;99608.65;1777163;80;20882;-54
2021/05/28 02:37:05;;;;;;;35.98;29.20;;;;;;;16.57;100.00;99608.28;1778044;80;20938;-54
2021/05/28 02:39:31;;;;;;;33.00;28.85;;;;;;;16.56;100.00;99605.16;1781631;80;20917;-54
2021/05/28 02:42:00;;;;;;;38.08;30.60;;;;;;;16.57;100.00;99604.19;1772155;80;21054;-54
2021/05/28 02:44:27;;;;;;;36.00;29.80;;;;;;;16.59;100.00;99596.77;1776286;80;21159;-53
2021/05/28 02:46:54;;;;;;;38.40;31.87;;;;;;;16.61;100.00;99589.33;1770348;80;21267;-54
2021/05/28 02:49:20;;;;;;;41.92;30.95;;;;;;;16.63;100.00;99595.55;1761556;81;20974;-55
2021/05/28 02:51:47;;;;;;;35.38;29.82;;;;;;;16.64;100.00;99598.63;1762645;81;20899;-54
2021/05/28 02:54:14;;;;;;;38.78;31.75;;;;;;;16.64;100.00;99593.19;1748177;81;21175;-54
2021/05/28 02:56:41;;;;;;;38.33;31.23;;;;;;;16.67;100.00;99598.41;1757839;81;20993;-54
2021/05/28 02:59:08;;;;;;;39.18;30.60;;;;;;;16.68;100.00;99587.89;1755878;80;21536;-53
2021/05/28 03:01:35;;;;;;;39.30;31.50;;;;;;;16.69;100.00;99588.75;1761972;80;20938;-53
2021/05/28 03:04:03;;;;;;;43.35;33.65;;;;;;;16.70;100.00;99585.03;1761561;80;20974;-53
2021/05/28 03:06:30;;;;;;;43.68;34.73;;;;;;;16.72;100.00;99589.42;1763061;81;20895;-59
2021/05/28 03:08:58;;;;;;;38.38;32.10;;;;;;;16.70;100.00;99583.17;1753700;80;21379;-55
2021/05/28 03:11:26;;;;;;;39.90;31.62;;;;;;;16.72;100.00;99580.36;1760873;81;20962;-54
2021/05/28 03:13:53;;;;;;;38.58;32.65;;;;;;;16.72;100.00;99577.16;1759367;80;21013;-55
2021/05/28 03:16:20;;;;;;;38.42;31.70;;;;;;;16.74;100.00;99578.40;1763153;80;20894;-54
2021/05/28 03:18:52;;;;;;;42.98;32.73;;;;;;;16.74;100.00;99583.84;1765241;80;21027;-55
2021/05/28 03:21:23;;;;;;;38.20;30.97;;;;;;;16.73;100.00;99588.43;1761912;81;21446;-54
2021/05/28 03:23:51;;;;;;;39.18;31.12;;;;;;;16.73;100.00;99581.63;1699646;83;20982;-55
2021/05/28 03:26:18;;;;;;;40.17;32.95;;;;;;;16.75;100.00;99587.80;1760827;81;21629;-54
2021/05/28 03:28:45;;;;;;;39.42;31.93;;;;;;;16.76;100.00;99588.17;1761049;81;20907;-54
2021/05/28 03:31:12;;;;;;;34.63;30.90;;;;;;;16.78;100.00;99589.90;1760001;80;21047;-55
2021/05/28 03:33:39;;;;;;;38.50;33.73;;;;;;;16.79;100.00;99591.66;1761102;81;20930;-55
2021/05/28 03:36:06;;;;;;;42.03;32.90;;;;;;;16.79;100.00;99593.89;1763554;81;20942;-55
2021/05/28 03:38:33;;;;;;;41.30;32.80;;;;;;;16.81;100.00;99595.12;1763506;81;20982;-55
2021/05/28 03:41:00;;;;;;;43.10;33.88;;;;;;;16.81;100.00;99592.39;1761076;81;20933;-55
2021/05/28 03:43:27;;;;;;;38.48;33.00;;;;;;;16.81;100.00;99595.12;1762654;80;21574;-54
2021/05/28 03:45:56;;;;;;;39.98;32.93;;;;;;;16.81;100.00;99588.31;1762031;80;20923;-55
2021/05/28 03:48:23;;;;;;;41.08;33.88;;;;;;;16.80;100.00;99598.84;1770673;80;20892;-56
2021/05/28 03:50:50;;;;;;;40.50;35.88;;;;;;;16.81;100.00;99585.59;1771752;80;20978;-55
2021/05/28 03:53:17;;;;;;;48.13;39.35;;;;;;;16.80;100.00;99590.67;1766594;80;21415;-55
2021/05/28 03:55:46;;;;;;;41.18;36.60;;;;;;;16.80;100.00;99598.84;1769321;80;20954;-54
2021/05/28 03:58:13;;;;;;;62.08;50.23;;;;;;;16.80;100.00;99602.42;1761874;80;20915;-55
2021/05/28 04:00:40;;;;;;;68.87;56.02;;;;;;;16.82;100.00;99594.12;1761478;80;20930;-55
2021/05/28 04:03:07;;;;;;;78.52;63.17;;;;;;;16.82;100.00;99602.30;1766650;80;21435;-55
2021/05/28 04:05:34;;;;;;;88.85;70.37;;;;;;;16.81;100.00;99597.34;1764241;80;20881;-55
2021/05/28 04:08:01;;;;;;;89.03;69.37;;;;;;;16.81;100.00;99593.26;1767707;80;21072;-55
2021/05/28 04:10:29;;;;;;;92.25;75.95;;;;;;;16.82;100.00;99594.12;1769234;80;21450;-55
2021/05/28 04:12:56;;;;;;;88.40;72.22;;;;;;;16.82;100.00;99605.02;1767551;80;20965;-56
2021/05/28 04:15:23;;;;;;;90.22;71.45;;;;;;;16.83;100.00;99597.22;1765979;80;20934;-56
2021/05/28 04:17:50;;;;;;;86.08;68.62;;;;;;;16.84;100.00;99600.34;1770727;80;20941;-56
2021/05/28 04:20:18;;;;;;;86.67;67.90;;;;;;;16.84;100.00;99605.78;1769739;80;21772;-56
2021/05/28 04:22:45;;;;;;;83.15;66.53;;;;;;;16.85;100.00;99607.52;1765495;80;20953;-55
2021/05/28 04:25:13;;;;;;;79.37;64.40;;;;;;;16.85;100.00;99605.66;1703449;82;21439;-55
2021/05/28 04:27:39;;;;;;;82.35;63.85;;;;;;;16.85;100.00;99600.21;1706961;82;20978;-55
2021/05/28 04:33:45;;;;;;;81.65;64.75;;;;;;;16.89;100.00;99603.57;1788705;77;22706;-55
2021/05/28 04:36:12;;;;;;;80.30;63.35;;;;;;;16.85;100.00;99604.80;1791258;78;21457;-54
2021/05/28 04:38:40;;;;;;;74.67;60.17;;;;;;;16.87;100.00;99619.14;1786100;78;21072;-54
2021/05/28 04:41:07;;;;;;;65.78;53.55;;;;;;;16.87;100.00;99611.84;1785942;78;21117;-54
2021/05/28 04:43:35;;;;;;;66.15;53.65;;;;;;;16.91;100.00;99615.20;1786644;80;21688;-55
2021/05/28 04:46:03;;;;;;;63.33;52.05;;;;;;;16.91;100.00;99615.20;1783746;78;20976;-56
2021/05/28 04:48:30;;;;;;;63.23;51.02;;;;;;;16.92;100.00;99611.48;1785618;78;21014;-55
2021/05/28 04:50:57;;;;;;;60.28;51.40;;;;;;;16.93;100.00;99609.12;1787556;78;21577;-56
2021/05/28 04:53:24;;;;;;;55.28;45.35;;;;;;;16.96;100.00;99612.98;1788530;78;20893;-56
2021/05/28 04:55:51;;;;;;;49.65;41.68;;;;;;;16.96;100.00;99610.27;1789098;78;20953;-57
2021/05/28 04:58:18;;;;;;;48.42;40.05;;;;;;;16.96;100.00;99615.21;1787331;78;21009;-57
2021/05/28 05:00:46;;;;;;;48.50;40.58;;;;;;;16.94;100.00;99610.39;1787415;78;20912;-51
2021/05/28 05:03:13;;;;;;;49.70;43.40;;;;;;;16.96;100.00;99607.53;1788315;78;21030;-57
2021/05/28 05:05:40;;;;;;;52.25;43.17;;;;;;;16.98;100.00;99608.27;1788060;78;20924;-57
2021/05/28 05:08:07;;;;;;;50.28;41.77;;;;;;;16.98;100.00;99608.27;1789144;80;20960;-55
2021/05/28 05:10:34;;;;;;;52.70;44.85;;;;;;;17.00;100.00;99606.31;1788096;80;20948;-56
2021/05/28 05:13:03;;;;;;;52.90;45.20;;;;;;;17.02;100.00;99605.19;1787516;80;21229;-55
2021/05/28 05:15:30;;;;;;;54.23;46.58;;;;;;;17.06;100.00;99610.41;1785028;79;21701;-57
2021/05/28 05:17:58;;;;;;;57.27;48.08;;;;;;;17.09;100.00;99611.00;1787498;80;20952;-57
2021/05/28 05:20:25;;;;;;;57.48;47.17;;;;;;;17.11;100.00;99606.33;1787042;78;20955;-56
2021/05/28 05:22:52;;;;;;;54.83;44.80;;;;;;;17.15;100.00;99607.82;1787341;78;20996;-53
2021/05/28 05:25:19;;;;;;;50.33;43.17;;;;;;;17.19;100.00;99603.84;1787430;78;20901;-56
2021/05/28 05:27:47;;;;;;;45.70;40.20;;;;;;;17.21;100.00;99604.60;1788236;78;21265;-57
2021/05/28 05:30:15;;;;;;;50.63;41.60;;;;;;;17.22;100.00;99594.56;1787800;78;20897;-57
2021/05/28 05:32:42;;;;;;;50.52;39.27;;;;;;;17.23;100.00;99606.70;1784302;79;20929;-55
2021/05/28 05:35:09;;;;;;;44.42;38.83;;;;;;;17.26;100.00;99611.92;1780348;79;21008;-56
2021/05/28 05:37:36;;;;;;;51.40;40.00;;;;;;;17.25;100.00;99611.52;1780509;79;20953;-55
2021/05/28 05:40:05;;;;;;;47.53;39.67;;;;;;;17.27;100.00;99614.14;1780240;79;20958;-56
2021/05/28 05:42:33;;;;;;;45.50;39.25;;;;;;;17.26;100.00;99613.28;1778034;80;20935;-58
2021/05/28 05:45:00;;;;;;;47.93;41.05;;;;;;;17.27;100.00;99615.01;1778907;79;20874;-58
2021/05/28 05:47:26;;;;;;;45.58;39.48;;;;;;;17.28;100.00;99611.28;1779083;80;20933;-57
2021/05/28 05:49:53;;;;;;;48.58;40.08;;;;;;;17.29;100.00;99606.20;1779247;79;20901;-57
2021/05/28 05:52:20;;;;;;;45.98;38.53;;;;;;;17.31;100.00;99608.83;1779411;80;21091;-61
2021/05/28 05:54:49;;;;;;;48.15;39.80;;;;;;;17.32;100.00;99608.33;1777734;79;21700;-58
2021/05/28 05:57:16;;;;;;;47.62;39.20;;;;;;;17.34;100.00;99609.06;1777974;78;20897;-58
2021/05/28 05:59:43;;;;;;;48.42;39.40;;;;;;;17.36;100.00;99609.79;1778464;79;20905;-58
2021/05/28 06:02:10;;;;;;;50.30;40.95;;;;;;;17.39;100.00;99620.46;1748599;80;21556;-57
2021/05/28 06:04:37;;;;;;;48.68;39.65;;;;;;;17.42;100.00;99614.77;1779794;79;21069;-57
2021/05/28 06:07:04;;;;;;;51.55;40.40;;;;;;;17.45;100.00;99615.88;1778430;80;21350;-57
2021/05/28 06:09:31;;;;;;;46.45;39.45;;;;;;;17.48;100.00;99612.91;1775809;79;20953;-58
2021/05/28 06:11:59;;;;;;;50.80;41.37;;;;;;;17.50;100.00;99612.28;1778009;80;21329;-58
2021/05/28 06:14:26;;;;;;;50.60;41.63;;;;;;;17.51;100.00;99603.96;1779035;79;21497;-59
2021/05/28 06:16:53;;;;;;;51.45;42.08;;;;;;;17.53;100.00;99603.86;1779060;79;21028;-60
2021/05/28 06:19:20;;;;;;;50.05;40.78;;;;;;;17.54;100.00;99611.05;1778727;79;20914;-56
2021/05/28 06:21:47;;;;;;;49.67;40.60;;;;;;;17.58;100.00;99606.19;1778897;80;21270;-57
2021/05/28 06:24:14;;;;;;;57.73;44.35;;;;;;;17.62;100.00;99607.67;1778629;79;20941;-57
2021/05/28 06:26:41;;;;;;;52.53;43.28;;;;;;;17.63;100.00;99604.85;1778487;79;20906;-58
2021/05/28 06:29:08;;;;;;;49.42;40.83;;;;;;;17.70;100.00;99608.80;1778768;79;21609;-58
2021/05/28 06:31:35;;;;;;;49.67;40.60;;;;;;;17.76;100.00;99605.59;1779588;79;21652;-56
2021/05/28 06:34:02;;;;;;;48.73;38.13;;;;;;;17.80;100.00;99616.62;1779415;78;20910;-57
2021/05/28 06:36:29;;;;;;;43.87;37.45;;;;;;;17.85;100.00;99605.84;1779584;80;21486;-57
2021/05/28 06:38:57;;;;;;;55.90;40.90;;;;;;;17.89;100.00;99612.75;1778622;79;21265;-59
2021/05/28 06:41:24;;;;;;;53.63;41.48;;;;;;;17.92;100.00;99605.19;1780613;79;21596;-58
2021/05/28 06:43:51;;;;;;;49.73;38.95;;;;;;;17.95;100.00;99610.88;1779908;79;20981;-58
2021/05/28 06:46:18;;;;;;;51.60;41.13;;;;;;;17.99;100.00;99613.23;1779828;80;21639;-59
2021/05/28 06:48:45;;;;;;;55.33;41.45;;;;;;;18.04;100.00;99603.30;1778619;79;20972;-54
2021/05/28 06:51:12;;;;;;;52.38;42.40;;;;;;;18.11;100.00;99601.81;1779573;79;21475;-58
2021/05/28 06:53:39;;;;;;;53.48;41.85;;;;;;;18.19;100.00;99606.11;1779047;79;21029;-55
2021/05/28 06:56:07;;;;;;;58.45;44.27;;;;;;;18.25;100.00;99606.95;1778242;79;21021;-58
2021/05/28 06:58:33;;;;;;;50.35;42.20;;;;;;;18.33;100.00;99604.95;1780170;79;21748;-56
2021/05/28 07:01:00;;;;;;;52.65;41.28;;;;;;;18.43;100.00;99606.38;1780236;79;20901;-60
2021/05/28 07:03:27;;;;;;;51.23;41.23;;;;;;;18.56;100.00;99608.45;1780879;79;20941;-59
2021/05/28 07:05:54;;;;;;;56.02;41.85;;;;;;;18.65;100.00;99604.94;1774792;79;21040;-57
2021/05/28 07:08:21;;;;;;;55.40;40.90;;;;;;;18.73;100.00;99604.30;1774969;79;20968;-58
2021/05/28 07:10:48;;;;;;;69.92;45.95;;;;;;;18.78;100.00;99604.27;1779382;80;20929;-57
2021/05/28 07:13:15;;;;;;;53.42;42.27;;;;;;;18.83;100.00;99603.36;1778859;79;20973;-57
2021/05/28 07:15:43;;;;;;;61.58;43.45;;;;;;;18.88;100.00;99608.94;1779150;80;20905;-59
2021/05/28 07:18:11;;;;;;;65.10;47.27;;;;;;;18.94;100.00;99612.50;1780692;79;21633;-57
2021/05/28 07:20:39;;;;;;;69.77;47.75;;;;;;;18.93;100.00;99606.67;1776679;79;21336;-56
2021/05/28 07:23:06;;;;;;;61.15;45.80;;;;;;;18.92;100.00;99607.67;1778624;79;20894;-59
2021/05/28 07:28:53;;;;;;;69.22;47.95;;;;;;;18.95;100.00;99599.19;1751598;79;21832;-57
2021/05/28 07:31:22;;;;;;;63.65;44.67;;;;;;;18.91;100.00;99600.45;1718187;82;20937;-56
2021/05/28 07:33:49;;;;;;;74.40;52.05;;;;;;;18.93;100.00;99604.80;1714016;82;21888;-56
2021/05/28 07:36:15;;;;;;;75.47;47.25;;;;;;;19.03;100.00;99599.41;1716266;82;21344;-57
2021/05/28 07:38:44;;;;;;;76.22;49.15;;;;;;;19.14;99.64;99601.19;1716463;82;20997;-59
2021/05/28 07:41:11;;;;;;;69.90;46.33;;;;;;;19.28;98.59;99603.55;1717101;82;21010;-56
2021/05/28 07:43:38;;;;;;;58.92;39.08;;;;;;;19.48;97.47;99601.78;1716090;82;20965;-57
2021/05/28 07:46:05;;;;;;;58.98;38.05;;;;;;;19.67;95.90;99601.90;1716613;82;22113;-56
2021/05/28 07:48:32;;;;;;;51.53;35.17;;;;;;;19.82;94.60;99592.30;1716714;82;20926;-57
2021/05/28 07:50:59;;;;;;;38.70;29.67;;;;;;;19.95;93.78;99592.53;1716081;82;20945;-57
2021/05/28 07:53:27;;;;;;;38.02;30.50;;;;;;;20.04;92.67;99587.59;1715519;82;20933;-57
2021/05/28 07:55:55;;;;;;;32.83;26.20;;;;;;;20.11;91.83;99584.64;1716983;82;21486;-58
2021/05/28 07:58:23;;;;;;;36.70;27.40;;;;;;;20.13;90.37;99574.39;1715327;82;21080;-57
2021/05/28 08:00:50;;;;;;;30.97;24.85;;;;;;;20.10;90.08;99582.41;1717119;82;20981;-57
2021/05/28 08:03:18;;;;;;;32.53;27.62;;;;;;;20.08;90.19;99586.28;1716821;82;21045;-57
2021/05/28 08:05:49;;;;;;;32.05;27.40;;;;;;;20.06;90.29;99577.35;1716422;82;20942;-57
2021/05/28 08:08:14;;;;;;;33.78;26.05;;;;;;;20.04;90.42;99580.75;1716103;82;21466;-57
2021/05/28 08:10:42;;;;;;;33.23;27.82;;;;;;;20.00;90.76;99586.14;1717097;82;21090;-59
2021/05/28 08:13:10;;;;;;;32.53;24.82;;;;;;;19.96;90.87;99581.94;1715788;82;21423;-56
2021/05/28 08:15:39;;;;;;;27.30;24.32;;;;;;;19.97;90.40;99583.67;1716543;82;20921;-61
2021/05/28 08:18:06;;;;;;;29.48;26.20;;;;;;;20.00;90.28;99582.03;1716252;82;20960;-57
2021/05/28 08:20:34;;;;;;;30.02;23.98;;;;;;;19.98;89.79;99579.95;1715785;82;20928;-57
2021/05/28 08:23:01;;;;;;;29.72;25.77;;;;;;;19.95;88.97;99582.95;1716488;82;21739;-57
2021/05/28 08:25:28;;;;;;;29.25;26.15;;;;;;;19.97;88.29;99576.83;1715284;82;21035;-57
2021/05/28 08:27:55;;;;;;;28.20;23.95;;;;;;;20.02;87.92;99562.20;1717173;82;21041;-59
2021/05/28 08:37:51;;;;;;;31.70;27.95;;;;;;;20.20;85.70;99557.78;1786600;79;22400;-58
2021/05/28 08:40:19;;;;;;;28.57;25.50;;;;;;;20.15;86.06;99551.86;1744296;79;20930;-58
2021/05/28 08:42:46;;;;;;;29.87;26.07;;;;;;;20.15;86.17;99554.60;1724334;81;21161;-58
2021/05/28 08:45:14;;;;;;;34.15;26.37;;;;;;;20.18;86.53;99562.52;1695586;81;21017;-57
2021/05/28 08:47:41;;;;;;;36.65;28.12;;;;;;;20.17;86.66;99555.31;1722460;82;21438;-59
2021/05/28 08:50:10;;;;;;;39.83;29.37;;;;;;;20.17;86.85;99552.58;1727037;81;20985;-57
2021/05/28 08:52:37;;;;;;;32.70;26.62;;;;;;;20.20;87.09;99551.44;1727259;81;20973;-57
2021/05/28 08:55:04;;;;;;;33.02;26.85;;;;;;;20.28;86.87;99549.69;1723701;81;21666;-58
2021/05/28 08:57:33;;;;;;;33.20;26.70;;;;;;;20.34;85.95;99547.73;1724595;81;20973;-60
2021/05/28 09:00:00;;;;;;;30.02;26.25;;;;;;;20.36;85.53;99544.37;1723555;81;21578;-58
2021/05/28 09:02:39;;;;;;;29.63;25.95;;;;;;;20.35;85.06;99534.44;1723141;81;21011;-57
2021/05/28 09:05:20;;;;;;;33.55;26.68;;;;;;;20.43;84.77;99539.68;1724676;81;21481;-58
2021/05/28 09:07:59;;;;;;;35.83;30.05;;;;;;;20.51;83.97;99540.73;1724607;82;21045;-59
2021/05/28 09:10:36;;;;;;;28.38;25.02;;;;;;;20.59;83.54;99546.84;1730007;81;21651;-56
2021/05/28 09:13:21;;;;;;;28.95;25.85;;;;;;;20.69;82.78;99543.58;1725997;81;20996;-57
2021/05/28 09:15:52;;;;;;;29.05;25.68;;;;;;;20.78;81.99;99543.22;1727156;82;21664;-59
2021/05/28 09:18:19;;;;;;;29.15;26.00;;;;;;;20.84;81.50;99539.38;1720696;81;20941;-57
2021/05/28 09:20:54;;;;;;;30.72;26.57;;;;;;;20.93;81.46;99543.97;1726850;82;21578;-58
2021/05/28 09:23:21;;;;;;;30.30;26.97;;;;;;;21.04;81.19;99542.93;1723364;81;20973;-58
2021/05/28 09:26:01;;;;;;;31.57;27.17;;;;;;;21.14;80.97;99534.13;1732685;81;21037;-58
2021/05/28 09:28:28;;;;;;;30.68;26.50;;;;;;;21.19;80.85;99537.80;1724967;81;20950;-57
2021/05/28 09:31:01;;;;;;;29.37;26.25;;;;;;;21.26;80.78;99532.61;1726552;80;20937;-58
2021/05/28 09:33:32;;;;;;;29.12;25.27;;;;;;;21.34;80.28;99536.84;1734272;80;20993;-60
2021/05/28 09:36:22;;;;;;;27.32;24.55;;;;;;;21.38;79.01;99533.66;1725211;81;21179;-59
2021/05/28 09:39:10;;;;;;;27.60;24.20;;;;;;;21.41;77.80;99530.63;1720475;80;20958;-59
2021/05/28 09:41:48;;;;;;;28.92;26.00;;;;;;;21.44;77.04;99522.06;1719477;80;20914;-59
2021/05/28 09:44:23;;;;;;;29.27;24.72;;;;;;;21.47;76.64;99525.55;1720691;80;20969;-60
2021/05/28 09:47:11;;;;;;;26.37;23.77;;;;;;;21.51;76.36;99515.97;1720443;80;21143;-58
2021/05/28 09:49:41;;;;;;;25.17;22.75;;;;;;;21.54;76.40;99515.67;1705423;81;20961;-56
2021/05/28 09:52:18;;;;;;;28.20;23.25;;;;;;;21.58;75.21;99519.84;1722769;80;21482;-58
2021/05/28 09:55:04;;;;;;;26.23;23.62;;;;;;;21.58;74.58;99512.98;1676846;84;22065;-58
2021/05/28 09:57:41;;;;;;;25.27;22.65;;;;;;;21.64;74.29;99519.23;1720381;80;20954;-58
2021/05/28 10:00:36;;;;;;;28.27;25.68;;;;;;;21.68;73.78;99509.68;1721118;82;21144;-58
2021/05/28 10:03:23;;;;;;;28.42;25.62;;;;;;;21.74;73.65;99512.31;1720437;80;20942;-58
2021/05/28 10:05:56;;;;;;;28.10;24.60;;;;;;;21.83;73.55;99499.01;1727274;80;21009;-58
2021/05/28 10:08:23;;;;;;;26.10;23.42;;;;;;;21.92;72.56;99500.83;1719880;80;20953;-57
2021/05/28 10:10:52;;;;;;;28.98;25.10;;;;;;;21.95;72.30;99497.78;1720900;80;21009;-59
2021/05/28 10:13:23;;;;;;;28.35;25.12;;;;;;;21.90;72.92;99491.38;1725803;80;21078;-58
2021/05/28 10:15:52;;;;;;;32.05;26.12;;;;;;;21.87;74.11;99498.55;1724654;81;21510;-58
2021/05/28 10:18:19;;;;;;;28.15;24.98;;;;;;;21.80;74.77;99493.84;1718572;80;21016;-58
2021/05/28 10:20:49;;;;;;;28.67;24.90;;;;;;;21.74;75.08;99489.84;1724415;80;20898;-58
2021/05/28 10:23:17;;;;;;;26.97;23.90;;;;;;;21.72;75.00;99494.60;1725249;80;21550;-57
2021/05/28 10:25:45;;;;;;;24.85;22.35;;;;;;;21.70;74.61;99492.53;1720606;82;20977;-56
2021/05/28 10:28:17;;;;;;;28.27;25.32;;;;;;;21.69;74.77;99491.67;1719495;80;20974;-56
2021/05/28 10:30:44;;;;;;;26.52;23.73;;;;;;;21.73;74.86;99488.09;1722044;80;20949;-57
2021/05/28 10:33:26;;;;;;;33.88;25.32;;;;;;;21.80;74.50;99485.09;1728267;80;20977;-57
2021/05/28 10:36:00;;;;;;;29.40;26.42;;;;;;;21.88;74.15;99483.80;1719743;80;20906;-58
2021/05/28 10:38:38;;;;;;;31.68;25.10;;;;;;;21.96;74.05;99478.40;1716042;81;21557;-56
2021/05/28 10:41:13;;;;;;;27.50;24.70;;;;;;;22.06;74.27;99485.70;1717757;81;21673;-55
2021/05/28 10:43:55;;;;;;;25.82;23.35;;;;;;;22.17;73.28;99480.00;1719391;81;20961;-57
2021/05/28 10:46:21;;;;;;;;;;;;;;;22.22;72.89;99476.27;1717460;82;20965;-57
2021/05/28 10:49:00;;;;;;;24.87;22.48;;;;;;;22.22;72.15;99468.03;1715645;81;20546;-56
2021/05/28 10:51:37;;;;;;;24.40;21.90;;;;;;;22.18;72.97;99462.49;1717516;81;21121;-56
2021/05/28 10:54:09;;;;;;;26.05;23.45;;;;;;;22.23;72.12;99460.13;1718071;81;20989;-57
2021/05/28 10:56:42;;;;;;;24.50;22.20;;;;;;;22.26;72.01;99452.93;1722752;81;20902;-56
2021/05/28 10:59:18;;;;;;;24.45;20.72;;;;;;;22.26;70.99;99457.05;1719636;81;21546;-56
2021/05/28 11:01:52;;;;;;;24.02;21.40;;;;;;;22.26;71.00;99450.19;1716270;81;21624;-56
2021/05/28 11:04:32;;;;;;;24.05;21.65;;;;;;;22.30;70.82;99452.97;1714863;81;21056;-58
2021/05/28 11:07:05;;;;;;;25.05;22.75;;;;;;;22.36;71.08;99457.82;1719553;81;20938;-59
2021/05/28 11:09:48;;;;;;;24.32;21.75;;;;;;;22.43;70.78;99456.18;1716761;81;20950;-59
2021/05/28 11:12:23;;;;;;;;;;;;;;;22.44;70.67;99442.78;1720465;81;20992;-59
2021/05/28 11:15:10;;;;;;;22.37;20.23;;;;;;;22.40;70.48;99439.14;1723397;81;20178;-64
2021/05/28 11:17:59;;;;;;;23.35;20.43;;;;;;;22.37;70.50;99433.95;1718216;81;21033;-59
2021/05/28 11:20:39;;;;;;;21.75;19.75;;;;;;;22.38;70.14;99428.32;1719237;81;20993;-59
2021/05/28 11:23:15;;;;;;;22.13;20.12;;;;;;;22.40;70.15;99429.01;1721004;81;20934;-58
2021/05/28 11:25:50;;;;;;;22.75;20.32;;;;;;;22.39;70.44;99430.04;1728031;81;21514;-59
2021/05/28 11:28:17;;;;;;;20.77;18.60;;;;;;;22.39;71.16;99423.17;1722086;81;20966;-60
2021/05/28 11:30:59;;;;;;;21.07;18.92;;;;;;;22.35;71.31;99420.38;1718716;81;20957;-60
2021/05/28 11:33:38;;;;;;;21.40;19.25;;;;;;;22.30;71.66;99420.00;1723921;81;20961;-58
2021/05/28 11:36:39;;;;;;;22.17;19.73;;;;;;;22.28;71.74;99419.31;1720595;81;20946;-59
2021/05/28 11:39:18;;;;;;;21.20;19.30;;;;;;;22.25;71.58;99411.38;1719957;81;21438;-59
2021/05/28 11:41:50;;;;;;;21.73;19.52;;;;;;;22.23;70.69;99410.69;1712101;82;21442;-60
2021/05/28 11:44:22;;;;;;;20.75;17.55;;;;;;;22.19;70.92;99401.03;1720011;81;21081;-59
2021/05/28 11:46:51;;;;;;;22.05;19.92;;;;;;;22.21;70.75;99407.22;1718568;81;21048;-58
2021/05/28 11:49:20;;;;;;;21.73;19.57;;;;;;;22.22;71.00;99397.98;1715070;81;21025;-59
2021/05/28 11:52:06;;;;;;;21.05;19.00;;;;;;;22.29;71.14;99394.92;1716594;81;21013;-58